sensor_id;sensor_type;location;lat;lon;timestamp;temperature;humidity
22738;DHT22;11536;50.860;4.286;2023-12-04T00:02:23;3.60;99.90
22738;DHT22;11536;50.860;4.286;2023-12-04T00:04:48;3.60;99.90
22738;DHT22;11536;50.860;4.286;2023-12-04T00:07:14;3.60;99.90
22738;DHT22;11536;50.860;4.286;2023-12-04T00:09:40;3.60;99.90
22738;DHT22;11536;50.860;4.286;2023-12-04T00:12:06;3.60;99.90
22738;DHT22;11536;50.860;4.286;2023-12-04T00:14:31;3.60;99.90
22738;DHT22;11536;50.860;4.286;2023-12-04T00:16:57;3.70;99.90
22738;DHT22;11536;50.860;4.286;2023-12-04T00:19:22;3.70;99.90
22738;DHT22;11536;50.860;4.286;2023-12-04T00:21:48;3.60;99.90
22738;DHT22;11536;50.860;4.286;2023-12-04T00:24:14;3.60;99.90
22738;DHT22;11536;50.860;4.286;2023-12-04T00:26:40;3.60;99.90
22738;DHT22;11536;50.860;4.286;2023-12-04T00:29:06;3.60;99.90
22738;DHT22;11536;50.860;4.286;2023-12-04T00:31:31;3.70;99.90
22738;DHT22;11536;50.860;4.286;2023-12-04T00:33:57;3.60;99.90
22738;DHT22;11536;50.860;4.286;2023-12-04T00:36:23;3.60;99.90
22738;DHT22;11536;50.860;4.286;2023-12-04T00:38:48;3.60;99.90
22738;DHT22;11536;50.860;4.286;2023-12-04T00:41:14;3.60;99.90
22738;DHT22;11536;50.860;4.286;2023-12-04T00:43:40;3.60;99.90
22738;DHT22;11536;50.860;4.286;2023-12-04T00:46:06;3.60;99.90
22738;DHT22;11536;50.860;4.286;2023-12-04T00:48:31;3.60;99.90
22738;DHT22;11536;50.860;4.286;2023-12-04T00:50:57;3.70;99.90
22738;DHT22;11536;50.860;4.286;2023-12-04T00:53:23;3.70;99.90
22738;DHT22;11536;50.860;4.286;2023-12-04T00:55:49;3.70;99.90
22738;DHT22;11536;50.860;4.286;2023-12-04T00:58:15;3.70;99.90
22738;DHT22;11536;50.860;4.286;2023-12-04T01:00:40;3.70;99.90
22738;DHT22;11536;50.860;4.286;2023-12-04T01:03:06;3.70;99.90
22738;DHT22;11536;50.860;4.286;2023-12-04T01:05:32;3.70;99.90
22738;DHT22;11536;50.860;4.286;2023-12-04T01:07:57;3.70;99.90
22738;DHT22;11536;50.860;4.286;2023-12-04T01:10:23;3.80;99.90
22738;DHT22;11536;50.860;4.286;2023-12-04T01:12:48;3.80;99.90
22738;DHT22;11536;50.860;4.286;2023-12-04T01:15:14;3.80;99.90
22738;DHT22;11536;50.860;4.286;2023-12-04T01:17:40;3.80;99.90
22738;DHT22;11536;50.860;4.286;2023-12-04T01:20:06;3.80;99.90
22738;DHT22;11536;50.860;4.286;2023-12-04T01:22:32;3.80;99.90
22738;DHT22;11536;50.860;4.286;2023-12-04T01:24:58;3.80;99.90
22738;DHT22;11536;50.860;4.286;2023-12-04T01:27:23;3.80;99.90
22738;DHT22;11536;50.860;4.286;2023-12-04T01:29:49;3.80;99.90
22738;DHT22;11536;50.860;4.286;2023-12-04T01:32:15;3.80;99.90
22738;DHT22;11536;50.860;4.286;2023-12-04T01:34:40;3.80;99.90
22738;DHT22;11536;50.860;4.286;2023-12-04T01:37:06;3.80;99.90
22738;DHT22;11536;50.860;4.286;2023-12-04T01:39:32;3.80;99.90
22738;DHT22;11536;50.860;4.286;2023-12-04T01:41:57;3.80;99.90
22738;DHT22;11536;50.860;4.286;2023-12-04T01:44:24;3.80;99.90
22738;DHT22;11536;50.860;4.286;2023-12-04T01:46:50;3.90;99.90
22738;DHT22;11536;50.860;4.286;2023-12-04T01:49:16;3.80;99.90
22738;DHT22;11536;50.860;4.286;2023-12-04T01:51:42;3.80;99.90
22738;DHT22;11536;50.860;4.286;2023-12-04T01:54:08;3.80;99.90
22738;DHT22;11536;50.860;4.286;2023-12-04T01:56:36;3.80;99.90
22738;DHT22;11536;50.860;4.286;2023-12-04T01:59:03;3.80;99.90
22738;DHT22;11536;50.860;4.286;2023-12-04T02:01:30;3.80;99.90
22738;DHT22;11536;50.860;4.286;2023-12-04T02:03:56;3.80;99.90
22738;DHT22;11536;50.860;4.286;2023-12-04T02:06:23;3.80;99.90
22738;DHT22;11536;50.860;4.286;2023-12-04T02:08:50;3.80;99.90
22738;DHT22;11536;50.860;4.286;2023-12-04T02:11:16;3.80;99.90
22738;DHT22;11536;50.860;4.286;2023-12-04T02:13:42;3.90;99.90
22738;DHT22;11536;50.860;4.286;2023-12-04T02:16:10;3.80;99.90
22738;DHT22;11536;50.860;4.286;2023-12-04T02:18:36;3.80;99.90
22738;DHT22;11536;50.860;4.286;2023-12-04T02:21:03;3.80;99.90
22738;DHT22;11536;50.860;4.286;2023-12-04T02:23:28;3.80;99.90
22738;DHT22;11536;50.860;4.286;2023-12-04T02:26:01;3.80;99.90
22738;DHT22;11536;50.860;4.286;2023-12-04T02:28:33;3.90;99.90
22738;DHT22;11536;50.860;4.286;2023-12-04T02:30:59;3.90;99.90
22738;DHT22;11536;50.860;4.286;2023-12-04T02:33:26;4.00;99.90
22738;DHT22;11536;50.860;4.286;2023-12-04T02:35:53;3.90;99.90
22738;DHT22;11536;50.860;4.286;2023-12-04T02:38:21;3.80;99.90
22738;DHT22;11536;50.860;4.286;2023-12-04T02:40:46;3.90;99.90
22738;DHT22;11536;50.860;4.286;2023-12-04T02:43:12;3.90;99.90
22738;DHT22;11536;50.860;4.286;2023-12-04T02:45:38;3.90;99.90
22738;DHT22;11536;50.860;4.286;2023-12-04T02:48:03;3.80;99.90
22738;DHT22;11536;50.860;4.286;2023-12-04T02:50:29;3.80;99.90
22738;DHT22;11536;50.860;4.286;2023-12-04T02:52:55;3.80;99.90
22738;DHT22;11536;50.860;4.286;2023-12-04T02:55:20;3.90;99.90
22738;DHT22;11536;50.860;4.286;2023-12-04T02:57:46;3.80;99.90
22738;DHT22;11536;50.860;4.286;2023-12-04T03:00:12;3.80;99.90
22738;DHT22;11536;50.860;4.286;2023-12-04T03:02:38;3.80;99.90
22738;DHT22;11536;50.860;4.286;2023-12-04T03:05:04;3.80;99.90
22738;DHT22;11536;50.860;4.286;2023-12-04T03:07:29;3.80;99.90
22738;DHT22;11536;50.860;4.286;2023-12-04T03:09:55;3.80;99.90
22738;DHT22;11536;50.860;4.286;2023-12-04T03:12:21;3.80;99.90
22738;DHT22;11536;50.860;4.286;2023-12-04T03:14:46;3.80;99.90
22738;DHT22;11536;50.860;4.286;2023-12-04T03:17:12;3.80;99.90
22738;DHT22;11536;50.860;4.286;2023-12-04T03:19:37;3.80;99.90
22738;DHT22;11536;50.860;4.286;2023-12-04T03:22:03;3.80;99.90
22738;DHT22;11536;50.860;4.286;2023-12-04T03:24:29;3.80;99.90
22738;DHT22;11536;50.860;4.286;2023-12-04T03:26:54;3.90;99.90
22738;DHT22;11536;50.860;4.286;2023-12-04T03:29:20;3.90;99.90
22738;DHT22;11536;50.860;4.286;2023-12-04T03:31:46;3.90;99.90
22738;DHT22;11536;50.860;4.286;2023-12-04T03:34:11;3.90;99.90
22738;DHT22;11536;50.860;4.286;2023-12-04T03:36:37;3.90;99.90
22738;DHT22;11536;50.860;4.286;2023-12-04T03:39:02;3.90;99.90
22738;DHT22;11536;50.860;4.286;2023-12-04T03:41:28;3.90;99.90
22738;DHT22;11536;50.860;4.286;2023-12-04T03:43:54;3.90;99.90
22738;DHT22;11536;50.860;4.286;2023-12-04T03:46:20;3.90;99.90
22738;DHT22;11536;50.860;4.286;2023-12-04T03:48:45;3.90;99.90
22738;DHT22;11536;50.860;4.286;2023-12-04T03:51:11;4.00;99.90
22738;DHT22;11536;50.860;4.286;2023-12-04T03:53:37;4.00;99.90
22738;DHT22;11536;50.860;4.286;2023-12-04T03:56:03;4.00;99.90
22738;DHT22;11536;50.860;4.286;2023-12-04T03:58:28;4.00;99.90
22738;DHT22;11536;50.860;4.286;2023-12-04T04:00:54;4.00;99.90
22738;DHT22;11536;50.860;4.286;2023-12-04T04:03:19;4.00;99.90
22738;DHT22;11536;50.860;4.286;2023-12-04T04:05:45;4.00;99.90
22738;DHT22;11536;50.860;4.286;2023-12-04T04:08:11;4.10;99.90
22738;DHT22;11536;50.860;4.286;2023-12-04T04:10:36;4.00;99.90
22738;DHT22;11536;50.860;4.286;2023-12-04T04:13:02;4.00;99.90
22738;DHT22;11536;50.860;4.286;2023-12-04T04:15:28;4.00;99.90
22738;DHT22;11536;50.860;4.286;2023-12-04T04:17:53;4.00;99.90
22738;DHT22;11536;50.860;4.286;2023-12-04T04:20:20;4.00;99.90
22738;DHT22;11536;50.860;4.286;2023-12-04T04:22:48;4.00;99.90
22738;DHT22;11536;50.860;4.286;2023-12-04T04:25:13;4.10;99.90
22738;DHT22;11536;50.860;4.286;2023-12-04T04:27:39;4.00;99.90
22738;DHT22;11536;50.860;4.286;2023-12-04T04:30:05;4.00;99.90
22738;DHT22;11536;50.860;4.286;2023-12-04T04:32:31;4.10;99.90
22738;DHT22;11536;50.860;4.286;2023-12-04T04:34:57;4.00;99.90
22738;DHT22;11536;50.860;4.286;2023-12-04T04:37:22;4.00;99.90
22738;DHT22;11536;50.860;4.286;2023-12-04T04:39:48;4.10;99.90
22738;DHT22;11536;50.860;4.286;2023-12-04T04:42:14;4.10;99.90
22738;DHT22;11536;50.860;4.286;2023-12-04T04:44:40;4.10;99.90
22738;DHT22;11536;50.860;4.286;2023-12-04T04:47:06;4.10;99.90
22738;DHT22;11536;50.860;4.286;2023-12-04T04:49:31;4.00;99.90
22738;DHT22;11536;50.860;4.286;2023-12-04T04:51:57;4.00;99.90
22738;DHT22;11536;50.860;4.286;2023-12-04T04:54:22;4.00;99.90
22738;DHT22;11536;50.860;4.286;2023-12-04T04:56:48;4.00;99.90
22738;DHT22;11536;50.860;4.286;2023-12-04T04:59:14;4.00;99.90
22738;DHT22;11536;50.860;4.286;2023-12-04T05:01:39;4.00;99.90
22738;DHT22;11536;50.860;4.286;2023-12-04T05:04:05;4.10;99.90
22738;DHT22;11536;50.860;4.286;2023-12-04T05:06:31;4.00;99.90
22738;DHT22;11536;50.860;4.286;2023-12-04T05:08:57;4.00;99.90
22738;DHT22;11536;50.860;4.286;2023-12-04T05:11:23;4.00;99.90
22738;DHT22;11536;50.860;4.286;2023-12-04T05:13:49;4.00;99.90
22738;DHT22;11536;50.860;4.286;2023-12-04T05:16:15;4.00;99.90
22738;DHT22;11536;50.860;4.286;2023-12-04T05:18:41;4.10;99.90
22738;DHT22;11536;50.860;4.286;2023-12-04T05:21:10;4.10;99.90
22738;DHT22;11536;50.860;4.286;2023-12-04T05:23:37;4.10;99.90
22738;DHT22;11536;50.860;4.286;2023-12-04T05:26:02;4.10;99.90
22738;DHT22;11536;50.860;4.286;2023-12-04T05:28:28;4.10;99.90
22738;DHT22;11536;50.860;4.286;2023-12-04T05:30:54;4.10;99.90
22738;DHT22;11536;50.860;4.286;2023-12-04T05:33:19;4.10;99.90
22738;DHT22;11536;50.860;4.286;2023-12-04T05:35:47;4.10;99.90
22738;DHT22;11536;50.860;4.286;2023-12-04T05:38:13;4.10;99.90
22738;DHT22;11536;50.860;4.286;2023-12-04T05:40:39;4.10;99.90
22738;DHT22;11536;50.860;4.286;2023-12-04T05:43:04;4.10;99.90
22738;DHT22;11536;50.860;4.286;2023-12-04T05:45:30;4.20;99.90
22738;DHT22;11536;50.860;4.286;2023-12-04T05:47:56;4.20;99.90
22738;DHT22;11536;50.860;4.286;2023-12-04T05:50:21;4.20;99.90
22738;DHT22;11536;50.860;4.286;2023-12-04T05:52:47;4.20;99.90
22738;DHT22;11536;50.860;4.286;2023-12-04T05:55:12;4.30;99.90
22738;DHT22;11536;50.860;4.286;2023-12-04T05:57:39;4.20;99.90
22738;DHT22;11536;50.860;4.286;2023-12-04T06:00:06;4.20;99.90
22738;DHT22;11536;50.860;4.286;2023-12-04T06:02:38;4.20;99.90
22738;DHT22;11536;50.860;4.286;2023-12-04T06:05:07;4.30;99.90
22738;DHT22;11536;50.860;4.286;2023-12-04T06:07:33;4.30;99.90
22738;DHT22;11536;50.860;4.286;2023-12-04T06:09:59;4.30;99.90
22738;DHT22;11536;50.860;4.286;2023-12-04T06:12:25;4.30;99.90
22738;DHT22;11536;50.860;4.286;2023-12-04T06:14:50;4.30;99.90
22738;DHT22;11536;50.860;4.286;2023-12-04T06:17:16;4.30;99.90
22738;DHT22;11536;50.860;4.286;2023-12-04T06:19:42;4.30;99.90
22738;DHT22;11536;50.860;4.286;2023-12-04T06:22:08;4.30;99.90
22738;DHT22;11536;50.860;4.286;2023-12-04T06:24:34;4.30;99.90
22738;DHT22;11536;50.860;4.286;2023-12-04T06:27:00;4.30;99.90
22738;DHT22;11536;50.860;4.286;2023-12-04T06:29:26;4.30;99.90
22738;DHT22;11536;50.860;4.286;2023-12-04T06:31:52;4.30;99.90
22738;DHT22;11536;50.860;4.286;2023-12-04T06:34:18;4.30;99.90
22738;DHT22;11536;50.860;4.286;2023-12-04T06:36:44;4.30;99.90
22738;DHT22;11536;50.860;4.286;2023-12-04T06:39:11;4.30;99.90
22738;DHT22;11536;50.860;4.286;2023-12-04T06:41:39;4.30;99.90
22738;DHT22;11536;50.860;4.286;2023-12-04T06:44:05;4.30;99.90
22738;DHT22;11536;50.860;4.286;2023-12-04T06:46:34;4.20;99.90
22738;DHT22;11536;50.860;4.286;2023-12-04T06:49:06;4.20;99.90
22738;DHT22;11536;50.860;4.286;2023-12-04T06:51:34;4.30;99.90
22738;DHT22;11536;50.860;4.286;2023-12-04T06:54:02;4.30;99.90
22738;DHT22;11536;50.860;4.286;2023-12-04T06:56:32;4.30;99.90
22738;DHT22;11536;50.860;4.286;2023-12-04T06:58:58;4.30;99.90
22738;DHT22;11536;50.860;4.286;2023-12-04T07:01:24;4.30;99.90
22738;DHT22;11536;50.860;4.286;2023-12-04T07:03:50;4.30;99.90
22738;DHT22;11536;50.860;4.286;2023-12-04T07:06:19;4.30;99.90
22738;DHT22;11536;50.860;4.286;2023-12-04T07:08:45;4.30;99.90
22738;DHT22;11536;50.860;4.286;2023-12-04T07:11:10;4.40;99.90
22738;DHT22;11536;50.860;4.286;2023-12-04T07:13:41;4.30;99.90
22738;DHT22;11536;50.860;4.286;2023-12-04T07:16:07;4.40;99.90
22738;DHT22;11536;50.860;4.286;2023-12-04T07:18:33;4.40;99.90
22738;DHT22;11536;50.860;4.286;2023-12-04T07:21:00;4.40;99.90
22738;DHT22;11536;50.860;4.286;2023-12-04T07:23:26;4.40;99.90
22738;DHT22;11536;50.860;4.286;2023-12-04T07:25:51;4.40;99.90
22738;DHT22;11536;50.860;4.286;2023-12-04T07:28:18;4.40;99.90
22738;DHT22;11536;50.860;4.286;2023-12-04T07:30:43;4.40;99.90
22738;DHT22;11536;50.860;4.286;2023-12-04T07:33:09;4.40;99.90
22738;DHT22;11536;50.860;4.286;2023-12-04T07:35:35;4.40;99.90
22738;DHT22;11536;50.860;4.286;2023-12-04T07:38:00;4.40;99.90
22738;DHT22;11536;50.860;4.286;2023-12-04T07:40:26;4.40;99.90
22738;DHT22;11536;50.860;4.286;2023-12-04T07:42:52;4.40;99.90
22738;DHT22;11536;50.860;4.286;2023-12-04T07:45:17;4.40;99.90
22738;DHT22;11536;50.860;4.286;2023-12-04T07:47:43;4.50;99.90
22738;DHT22;11536;50.860;4.286;2023-12-04T07:50:09;4.50;99.90
22738;DHT22;11536;50.860;4.286;2023-12-04T07:52:35;4.50;99.90
22738;DHT22;11536;50.860;4.286;2023-12-04T07:55:00;4.50;99.90
22738;DHT22;11536;50.860;4.286;2023-12-04T07:57:26;4.50;99.90
22738;DHT22;11536;50.860;4.286;2023-12-04T07:59:52;4.50;99.90
22738;DHT22;11536;50.860;4.286;2023-12-04T08:02:18;4.50;99.90
22738;DHT22;11536;50.860;4.286;2023-12-04T08:04:44;4.50;99.90
22738;DHT22;11536;50.860;4.286;2023-12-04T08:07:09;4.50;99.90
22738;DHT22;11536;50.860;4.286;2023-12-04T08:09:35;4.60;99.90
22738;DHT22;11536;50.860;4.286;2023-12-04T08:12:01;4.50;99.90
22738;DHT22;11536;50.860;4.286;2023-12-04T08:14:27;4.50;99.90
22738;DHT22;11536;50.860;4.286;2023-12-04T08:16:53;4.50;99.90
22738;DHT22;11536;50.860;4.286;2023-12-04T08:19:19;4.50;99.90
22738;DHT22;11536;50.860;4.286;2023-12-04T08:21:44;4.50;99.90
22738;DHT22;11536;50.860;4.286;2023-12-04T08:24:10;4.50;99.90
22738;DHT22;11536;50.860;4.286;2023-12-04T08:26:36;4.60;99.90
22738;DHT22;11536;50.860;4.286;2023-12-04T08:29:01;4.70;99.90
22738;DHT22;11536;50.860;4.286;2023-12-04T08:31:28;4.60;99.90
22738;DHT22;11536;50.860;4.286;2023-12-04T08:33:53;4.60;99.90
22738;DHT22;11536;50.860;4.286;2023-12-04T08:36:20;4.60;99.90
22738;DHT22;11536;50.860;4.286;2023-12-04T08:38:45;4.60;99.90
22738;DHT22;11536;50.860;4.286;2023-12-04T08:41:11;4.60;99.90
22738;DHT22;11536;50.860;4.286;2023-12-04T08:43:37;4.60;99.90
22738;DHT22;11536;50.860;4.286;2023-12-04T08:46:06;4.60;99.90
22738;DHT22;11536;50.860;4.286;2023-12-04T08:48:43;4.60;99.90
22738;DHT22;11536;50.860;4.286;2023-12-04T08:51:18;4.60;99.90
22738;DHT22;11536;50.860;4.286;2023-12-04T08:53:45;4.60;99.90
22738;DHT22;11536;50.860;4.286;2023-12-04T08:56:11;4.60;99.90
22738;DHT22;11536;50.860;4.286;2023-12-04T08:58:37;4.70;99.90
22738;DHT22;11536;50.860;4.286;2023-12-04T09:01:04;4.70;99.90
22738;DHT22;11536;50.860;4.286;2023-12-04T09:03:30;4.70;99.90
22738;DHT22;11536;50.860;4.286;2023-12-04T09:05:59;4.70;99.90
22738;DHT22;11536;50.860;4.286;2023-12-04T09:08:25;4.80;99.90
22738;DHT22;11536;50.860;4.286;2023-12-04T09:10:53;4.70;99.90
22738;DHT22;11536;50.860;4.286;2023-12-04T09:13:19;4.70;99.90
22738;DHT22;11536;50.860;4.286;2023-12-04T09:15:44;4.70;99.90
22738;DHT22;11536;50.860;4.286;2023-12-04T09:18:10;4.80;99.90
22738;DHT22;11536;50.860;4.286;2023-12-04T09:20:35;4.80;99.90
22738;DHT22;11536;50.860;4.286;2023-12-04T09:23:01;4.80;99.90
22738;DHT22;11536;50.860;4.286;2023-12-04T09:25:27;4.80;99.90
22738;DHT22;11536;50.860;4.286;2023-12-04T09:27:53;4.80;99.90
22738;DHT22;11536;50.860;4.286;2023-12-04T09:30:18;4.80;99.90
22738;DHT22;11536;50.860;4.286;2023-12-04T09:32:44;4.80;99.90
22738;DHT22;11536;50.860;4.286;2023-12-04T09:35:10;4.80;99.90
22738;DHT22;11536;50.860;4.286;2023-12-04T09:37:36;4.80;99.90
22738;DHT22;11536;50.860;4.286;2023-12-04T09:40:02;4.80;99.90
22738;DHT22;11536;50.860;4.286;2023-12-04T09:42:29;4.80;99.90
22738;DHT22;11536;50.860;4.286;2023-12-04T09:44:56;4.80;99.90
22738;DHT22;11536;50.860;4.286;2023-12-04T09:47:23;4.70;99.90
22738;DHT22;11536;50.860;4.286;2023-12-04T09:49:51;4.70;99.90
22738;DHT22;11536;50.860;4.286;2023-12-04T09:52:18;4.70;99.90
22738;DHT22;11536;50.860;4.286;2023-12-04T09:54:44;4.70;99.90
22738;DHT22;11536;50.860;4.286;2023-12-04T09:57:11;4.70;99.90
22738;DHT22;11536;50.860;4.286;2023-12-04T09:59:38;4.60;99.90
22738;DHT22;11536;50.860;4.286;2023-12-04T10:02:04;4.60;99.90
22738;DHT22;11536;50.860;4.286;2023-12-04T10:04:30;4.70;99.90
22738;DHT22;11536;50.860;4.286;2023-12-04T10:06:57;4.60;99.90
22738;DHT22;11536;50.860;4.286;2023-12-04T10:09:22;4.60;99.90
22738;DHT22;11536;50.860;4.286;2023-12-04T10:11:50;4.60;99.90
22738;DHT22;11536;50.860;4.286;2023-12-04T10:14:21;4.60;99.90
22738;DHT22;11536;50.860;4.286;2023-12-04T10:16:47;4.60;99.90
22738;DHT22;11536;50.860;4.286;2023-12-04T10:19:17;4.50;99.90
22738;DHT22;11536;50.860;4.286;2023-12-04T10:21:48;4.50;99.90
22738;DHT22;11536;50.860;4.286;2023-12-04T10:26:56;4.50;99.90
22738;DHT22;11536;50.860;4.286;2023-12-04T10:29:22;4.50;99.90
22738;DHT22;11536;50.860;4.286;2023-12-04T10:31:50;4.50;99.90
22738;DHT22;11536;50.860;4.286;2023-12-04T10:34:16;4.60;99.90
22738;DHT22;11536;50.860;4.286;2023-12-04T10:36:42;4.50;99.90
22738;DHT22;11536;50.860;4.286;2023-12-04T10:39:07;4.50;99.90
22738;DHT22;11536;50.860;4.286;2023-12-04T10:41:33;4.50;99.90
22738;DHT22;11536;50.860;4.286;2023-12-04T10:43:59;4.60;99.90
22738;DHT22;11536;50.860;4.286;2023-12-04T10:46:27;4.60;99.90
22738;DHT22;11536;50.860;4.286;2023-12-04T10:48:53;4.60;99.90
22738;DHT22;11536;50.860;4.286;2023-12-04T10:51:20;4.70;99.90
22738;DHT22;11536;50.860;4.286;2023-12-04T10:53:47;4.70;99.90
22738;DHT22;11536;50.860;4.286;2023-12-04T10:56:27;4.70;99.90
22738;DHT22;11536;50.860;4.286;2023-12-04T10:58:57;4.70;99.90
22738;DHT22;11536;50.860;4.286;2023-12-04T11:01:25;4.70;99.90
22738;DHT22;11536;50.860;4.286;2023-12-04T11:03:53;4.80;99.90
22738;DHT22;11536;50.860;4.286;2023-12-04T11:06:21;4.80;99.90
22738;DHT22;11536;50.860;4.286;2023-12-04T11:08:48;4.80;99.90
22738;DHT22;11536;50.860;4.286;2023-12-04T11:11:34;4.80;99.90
22738;DHT22;11536;50.860;4.286;2023-12-04T11:14:05;4.80;99.90
22738;DHT22;11536;50.860;4.286;2023-12-04T11:16:41;4.90;99.90
22738;DHT22;11536;50.860;4.286;2023-12-04T11:19:39;4.90;99.90
22738;DHT22;11536;50.860;4.286;2023-12-04T11:22:09;4.90;99.90
22738;DHT22;11536;50.860;4.286;2023-12-04T11:24:35;4.90;99.90
22738;DHT22;11536;50.860;4.286;2023-12-04T11:27:01;4.90;99.90
22738;DHT22;11536;50.860;4.286;2023-12-04T11:29:29;5.00;99.90
22738;DHT22;11536;50.860;4.286;2023-12-04T11:31:55;5.00;99.90
22738;DHT22;11536;50.860;4.286;2023-12-04T11:34:21;5.00;99.90
22738;DHT22;11536;50.860;4.286;2023-12-04T11:36:47;5.00;99.90
22738;DHT22;11536;50.860;4.286;2023-12-04T11:39:12;5.00;99.90
22738;DHT22;11536;50.860;4.286;2023-12-04T11:41:40;5.00;99.90
22738;DHT22;11536;50.860;4.286;2023-12-04T11:44:15;5.00;99.90
22738;DHT22;11536;50.860;4.286;2023-12-04T11:46:55;5.00;99.90
22738;DHT22;11536;50.860;4.286;2023-12-04T11:51:58;5.00;99.90
22738;DHT22;11536;50.860;4.286;2023-12-04T11:54:28;5.00;99.90
22738;DHT22;11536;50.860;4.286;2023-12-04T11:59:42;5.00;99.90
22738;DHT22;11536;50.860;4.286;2023-12-04T12:02:11;5.10;99.90
22738;DHT22;11536;50.860;4.286;2023-12-04T12:04:37;5.10;99.90
22738;DHT22;11536;50.860;4.286;2023-12-04T12:07:05;5.10;99.90
22738;DHT22;11536;50.860;4.286;2023-12-04T12:09:34;5.10;99.90
22738;DHT22;11536;50.860;4.286;2023-12-04T12:12:05;5.10;99.90
22738;DHT22;11536;50.860;4.286;2023-12-04T12:14:32;5.10;99.90
22738;DHT22;11536;50.860;4.286;2023-12-04T12:17:00;5.10;99.90
22738;DHT22;11536;50.860;4.286;2023-12-04T12:19:26;5.20;99.90
22738;DHT22;11536;50.860;4.286;2023-12-04T12:21:52;5.20;99.90
22738;DHT22;11536;50.860;4.286;2023-12-04T12:24:19;5.20;99.90
22738;DHT22;11536;50.860;4.286;2023-12-04T12:26:45;5.20;99.90
22738;DHT22;11536;50.860;4.286;2023-12-04T12:29:11;5.20;99.90
22738;DHT22;11536;50.860;4.286;2023-12-04T12:31:37;5.20;99.90
22738;DHT22;11536;50.860;4.286;2023-12-04T12:34:03;5.20;99.90
22738;DHT22;11536;50.860;4.286;2023-12-04T12:36:29;5.20;99.90
22738;DHT22;11536;50.860;4.286;2023-12-04T12:38:58;5.20;99.90
22738;DHT22;11536;50.860;4.286;2023-12-04T12:41:23;5.30;99.90
22738;DHT22;11536;50.860;4.286;2023-12-04T12:43:51;5.30;99.90
22738;DHT22;11536;50.860;4.286;2023-12-04T12:46:18;5.20;99.90
22738;DHT22;11536;50.860;4.286;2023-12-04T12:48:46;5.30;99.90
22738;DHT22;11536;50.860;4.286;2023-12-04T12:51:12;5.40;99.90
22738;DHT22;11536;50.860;4.286;2023-12-04T12:53:38;5.30;99.90
22738;DHT22;11536;50.860;4.286;2023-12-04T12:56:05;5.30;99.90
22738;DHT22;11536;50.860;4.286;2023-12-04T12:58:31;5.40;99.90
22738;DHT22;11536;50.860;4.286;2023-12-04T13:00:57;5.40;99.90
22738;DHT22;11536;50.860;4.286;2023-12-04T13:03:22;5.40;99.90
22738;DHT22;11536;50.860;4.286;2023-12-04T13:05:48;5.40;99.90
22738;DHT22;11536;50.860;4.286;2023-12-04T13:11:10;5.40;99.90
22738;DHT22;11536;50.860;4.286;2023-12-04T13:13:35;5.40;99.90
22738;DHT22;11536;50.860;4.286;2023-12-04T13:16:01;5.40;99.90
22738;DHT22;11536;50.860;4.286;2023-12-04T13:18:27;5.40;99.90
22738;DHT22;11536;50.860;4.286;2023-12-04T13:20:52;5.40;99.90
22738;DHT22;11536;50.860;4.286;2023-12-04T13:23:18;5.40;99.90
22738;DHT22;11536;50.860;4.286;2023-12-04T13:25:44;5.40;99.90
22738;DHT22;11536;50.860;4.286;2023-12-04T13:28:10;5.40;99.90
22738;DHT22;11536;50.860;4.286;2023-12-04T13:30:36;5.50;99.90
22738;DHT22;11536;50.860;4.286;2023-12-04T13:33:01;5.50;99.90
22738;DHT22;11536;50.860;4.286;2023-12-04T13:35:28;5.50;99.90
22738;DHT22;11536;50.860;4.286;2023-12-04T13:37:54;5.50;99.90
22738;DHT22;11536;50.860;4.286;2023-12-04T13:40:24;5.40;99.90
22738;DHT22;11536;50.860;4.286;2023-12-04T13:42:53;5.50;99.90
22738;DHT22;11536;50.860;4.286;2023-12-04T13:45:38;5.50;99.90
22738;DHT22;11536;50.860;4.286;2023-12-04T13:48:04;5.50;99.90
22738;DHT22;11536;50.860;4.286;2023-12-04T13:50:29;5.50;99.90
22738;DHT22;11536;50.860;4.286;2023-12-04T13:52:55;5.50;99.90
22738;DHT22;11536;50.860;4.286;2023-12-04T13:55:26;5.60;99.90
22738;DHT22;11536;50.860;4.286;2023-12-04T13:58:10;5.50;99.90
22738;DHT22;11536;50.860;4.286;2023-12-04T14:00:56;5.60;99.90
22738;DHT22;11536;50.860;4.286;2023-12-04T14:03:22;5.50;99.90
22738;DHT22;11536;50.860;4.286;2023-12-04T14:05:57;5.60;99.90
22738;DHT22;11536;50.860;4.286;2023-12-04T14:08:23;5.60;99.90
22738;DHT22;11536;50.860;4.286;2023-12-04T14:10:48;5.70;99.90
22738;DHT22;11536;50.860;4.286;2023-12-04T14:13:14;5.60;99.90
22738;DHT22;11536;50.860;4.286;2023-12-04T14:15:40;5.60;99.90
22738;DHT22;11536;50.860;4.286;2023-12-04T14:18:05;5.70;99.90
22738;DHT22;11536;50.860;4.286;2023-12-04T14:20:31;5.60;99.90
22738;DHT22;11536;50.860;4.286;2023-12-04T14:22:57;5.60;99.90
22738;DHT22;11536;50.860;4.286;2023-12-04T14:25:22;5.60;99.90
22738;DHT22;11536;50.860;4.286;2023-12-04T14:27:48;5.60;99.90
22738;DHT22;11536;50.860;4.286;2023-12-04T14:30:14;5.60;99.90
22738;DHT22;11536;50.860;4.286;2023-12-04T14:32:39;5.70;99.90
22738;DHT22;11536;50.860;4.286;2023-12-04T14:35:07;5.70;99.90
22738;DHT22;11536;50.860;4.286;2023-12-04T14:37:34;5.70;99.90
22738;DHT22;11536;50.860;4.286;2023-12-04T14:39:59;5.70;99.90
22738;DHT22;11536;50.860;4.286;2023-12-04T14:42:25;5.70;99.90
22738;DHT22;11536;50.860;4.286;2023-12-04T14:44:51;5.70;99.90
22738;DHT22;11536;50.860;4.286;2023-12-04T14:47:16;5.70;99.90
22738;DHT22;11536;50.860;4.286;2023-12-04T14:49:42;5.80;99.90
22738;DHT22;11536;50.860;4.286;2023-12-04T14:52:14;5.70;99.90
22738;DHT22;11536;50.860;4.286;2023-12-04T14:54:40;5.80;99.90
22738;DHT22;11536;50.860;4.286;2023-12-04T14:57:25;5.80;99.90
22738;DHT22;11536;50.860;4.286;2023-12-04T14:59:56;5.80;99.90
22738;DHT22;11536;50.860;4.286;2023-12-04T15:02:41;5.80;99.90
22738;DHT22;11536;50.860;4.286;2023-12-04T15:05:25;5.80;99.90
22738;DHT22;11536;50.860;4.286;2023-12-04T15:08:26;5.80;99.90
22738;DHT22;11536;50.860;4.286;2023-12-04T15:10:51;5.80;99.90
22738;DHT22;11536;50.860;4.286;2023-12-04T15:13:35;5.90;99.90
22738;DHT22;11536;50.860;4.286;2023-12-04T15:16:10;5.80;99.90
22738;DHT22;11536;50.860;4.286;2023-12-04T15:18:52;5.90;99.90
22738;DHT22;11536;50.860;4.286;2023-12-04T15:21:37;5.80;99.90
22738;DHT22;11536;50.860;4.286;2023-12-04T15:24:03;5.90;99.90
22738;DHT22;11536;50.860;4.286;2023-12-04T15:26:29;5.90;99.90
22738;DHT22;11536;50.860;4.286;2023-12-04T15:28:56;5.90;99.90
22738;DHT22;11536;50.860;4.286;2023-12-04T15:31:21;5.90;99.90
22738;DHT22;11536;50.860;4.286;2023-12-04T15:33:47;5.90;99.90
22738;DHT22;11536;50.860;4.286;2023-12-04T15:36:13;6.00;99.90
22738;DHT22;11536;50.860;4.286;2023-12-04T15:38:38;6.00;99.90
22738;DHT22;11536;50.860;4.286;2023-12-04T15:41:04;6.10;99.90
22738;DHT22;11536;50.860;4.286;2023-12-04T15:43:30;6.00;99.90
22738;DHT22;11536;50.860;4.286;2023-12-04T15:45:56;6.00;99.90
22738;DHT22;11536;50.860;4.286;2023-12-04T15:48:22;6.10;99.90
22738;DHT22;11536;50.860;4.286;2023-12-04T15:50:47;6.10;99.90
22738;DHT22;11536;50.860;4.286;2023-12-04T15:53:13;6.10;99.90
22738;DHT22;11536;50.860;4.286;2023-12-04T15:55:39;6.10;99.90